Time;durP1;ratioP1;P1;durP2;ratioP2;P2;SDS_P1;SDS_P2;PMS_P1;PMS_P2;Temp;Humidity;BMP_temperature;BMP_pressure;BME280_temperature;BME280_humidity;BME280_pressure;Samples;Min_cycle;Max_cycle;Signal;HPM_P1;HPM_P2
2022/10/22 00:01:10;;;;;;;;;;;;;;;21.36;57.67;100576.84;5010370;28;2735;-65
2022/10/22 00:03:36;;;;;;;;;;;;;;;21.37;57.55;100577.56;5014861;28;2949;-66
2022/10/22 00:06:02;;;;;;;;;;;;;;;21.37;57.53;100592.72;5010055;28;3007;-66
2022/10/22 00:08:29;;;;;;;;;;;;;;;21.36;57.69;100594.13;5011236;28;2819;-66
2022/10/22 00:10:55;;;;;;;;;;;;;;;21.34;57.50;100586.13;5012878;28;2071;-65
2022/10/22 00:13:22;;;;;;;;;;;;;;;21.34;57.70;100574.63;5015920;28;2782;-65
2022/10/22 00:15:48;;;;;;;;;;;;;;;21.34;57.50;100580.38;5011943;28;1708;-65
2022/10/22 00:18:14;;;;;;;;;;;;;;;21.34;57.54;100583.25;5017297;28;2888;-65
2022/10/22 00:20:41;;;;;;;;;;;;;;;21.33;57.78;100573.16;5013119;28;3270;-65
2022/10/22 00:23:07;;;;;;;;;;;;;;;21.32;57.66;100562.28;5011997;28;2854;-65
2022/10/22 00:25:34;;;;;;;;;;;;;;;21.33;57.55;100555.88;5017895;28;2023;-65
2022/10/22 00:28:01;;;;;;;;;;;;;;;21.32;57.48;100554.38;5012127;28;2933;-65
2022/10/22 00:30:27;;;;;;;;;;;;;;;21.33;57.58;100561.63;5017429;28;1655;-65
2022/10/22 00:32:53;;;;;;;;;;;;;;;21.32;57.91;100554.38;5019434;28;2305;-65
2022/10/22 00:35:20;;;;;;;;;;;;;;;21.31;57.76;100552.91;5015252;28;2718;-65
2022/10/22 00:37:46;;;;;;;;;;;;;;;21.32;57.58;100553.63;5012182;28;1850;-66
2022/10/22 00:40:13;;;;;;;;;;;;;;;21.30;57.71;100551.44;5014288;28;2627;-65
2022/10/22 00:42:39;;;;;;;;;;;;;;;21.30;57.76;100550.69;5006742;28;2724;-65
2022/10/22 00:45:06;;;;;;;;;;;;;;;21.31;57.72;100547.16;5008328;28;2976;-66
2022/10/22 00:47:34;;;;;;;;;;;;;;;21.30;57.78;100557.19;5014026;28;3250;-66
2022/10/22 00:50:00;;;;;;;;;;;;;;;21.32;57.73;100559.41;5017924;28;2840;-65
2022/10/22 00:52:32;;;;;;;;;;;;;;;21.30;57.53;100568.72;5011994;28;1982;-65
2022/10/22 00:54:58;;;;;;;;;;;;;;;21.30;57.53;100574.47;5009219;28;3011;-65
2022/10/22 00:57:24;;;;;;;;;;;;;;;21.30;57.42;100576.59;5027262;28;2775;-65
2022/10/22 00:59:51;;;;;;;;;;;;;;;21.30;57.67;100583.13;5025279;28;3073;-66
2022/10/22 01:02:17;;;;;;;;;;;;;;;21.30;57.63;100585.25;5002940;28;2754;-66
2022/10/22 01:04:43;;;;;;;;;;;;;;;21.29;57.57;100590.28;5013947;28;3298;-66
2022/10/22 01:07:17;;;;;;;;;;;;;;;21.29;57.86;100592.41;5014960;28;2917;-66
2022/10/22 01:10:02;;;;;;;;;;;;;;;21.28;57.67;100590.91;5007094;28;2678;-66
2022/10/22 01:12:47;;;;;;;;;;;;;;;21.28;57.63;100597.44;5013019;28;2832;-65
2022/10/22 01:15:16;;;;;;;;;;;;;;;21.28;57.89;100591.69;5012267;28;2876;-65
2022/10/22 01:17:54;;;;;;;;;;;;;;;21.27;57.58;100572.91;5024285;28;2740;-66
2022/10/22 01:20:39;;;;;;;;;;;;;;;21.26;58.02;100557.03;5026306;28;2582;-65
2022/10/22 01:23:12;;;;;;;;;;;;;;;21.26;57.50;100568.56;5008744;28;3131;-65
2022/10/22 01:25:45;;;;;;;;;;;;;;;21.26;57.68;100556.31;5012995;28;2977;-65
2022/10/22 01:28:17;;;;;;;;;;;;;;;21.26;57.81;100557.03;5024321;28;2890;-65
2022/10/22 01:30:43;;;;;;;;;;;;;;;21.26;57.88;100556.31;5001158;28;2968;-65
2022/10/22 01:33:10;;;;;;;;;;;;;;;21.26;57.72;100556.31;4996400;28;2824;-66
2022/10/22 01:35:37;;;;;;;;;;;;;;;21.24;57.71;100551.19;5023641;28;2372;-65
2022/10/22 01:38:05;;;;;;;;;;;;;;;21.25;57.70;100561.31;5013217;28;3055;-65
2022/10/22 01:40:31;;;;;;;;;;;;;;;21.25;57.71;100549.78;5010933;28;3036;-65
2022/10/22 01:42:58;;;;;;;;;;;;;;;21.25;57.57;100561.31;5012038;28;2772;-65
2022/10/22 01:45:25;;;;;;;;;;;;;;;21.25;57.81;100567.06;5023797;28;2836;-65
2022/10/22 01:48:03;;;;;;;;;;;;;;;21.25;57.55;100569.22;5013848;28;3016;-65
2022/10/22 01:50:29;;;;;;;;;;;;;;;21.24;57.73;100559.84;5014946;28;2884;-66
2022/10/22 01:52:59;;;;;;;;;;;;;;;21.24;57.69;100562.72;5017730;28;2699;-65
2022/10/22 01:55:27;;;;;;;;;;;;;;;21.25;57.83;100572.81;5016862;28;2804;-65
2022/10/22 01:58:00;;;;;;;;;;;;;;;21.24;57.90;100577.13;5018103;28;2972;-65
2022/10/22 02:00:27;;;;;;;;;;;;;;;21.24;58.04;100580.00;5012871;28;2747;-65
2022/10/22 02:03:01;;;;;;;;;;;;;;;21.24;57.72;100568.47;5024177;28;2907;-66
2022/10/22 02:05:38;;;;;;;;;;;;;;;21.24;57.71;100585.75;5010544;28;2879;-65
2022/10/22 02:08:05;;;;;;;;;;;;;;;21.24;57.70;100587.91;5010713;28;2885;-65
2022/10/22 02:10:31;;;;;;;;;;;;;;;21.23;57.61;100587.16;5016446;28;2754;-65
2022/10/22 02:12:58;;;;;;;;;;;;;;;21.22;57.77;100585.69;5008854;28;2942;-65
2022/10/22 02:15:24;;;;;;;;;;;;;;;21.22;57.75;100579.91;5020654;28;2844;-65
2022/10/22 02:17:51;;;;;;;;;;;;;;;21.22;57.85;100574.16;5012754;28;2967;-66
2022/10/22 02:20:18;;;;;;;;;;;;;;;21.21;57.84;100569.81;5014834;28;2836;-65
2022/10/22 02:22:44;;;;;;;;;;;;;;;21.21;57.77;100566.94;5011788;28;2778;-65
2022/10/22 02:25:11;;;;;;;;;;;;;;;21.21;57.98;100566.94;5027840;28;2983;-65
2022/10/22 02:27:44;;;;;;;;;;;;;;;21.21;57.97;100571.94;5010850;28;2887;-65
2022/10/22 02:30:11;;;;;;;;;;;;;;;21.19;57.76;100569.72;5045075;28;2794;-65
2022/10/22 02:32:46;;;;;;;;;;;;;;;21.21;57.92;100566.94;5022576;28;2991;-66
2022/10/22 02:35:13;;;;;;;;;;;;;;;21.20;57.93;100568.31;5044407;28;2752;-66
2022/10/22 02:37:40;;;;;;;;;;;;;;;21.21;57.76;100569.81;5028327;28;2942;-65
2022/10/22 02:40:06;;;;;;;;;;;;;;;21.19;57.79;100569.72;5031161;28;2995;-66
2022/10/22 02:42:32;;;;;;;;;;;;;;;21.19;57.68;100574.72;5015769;28;2837;-65
2022/10/22 02:44:59;;;;;;;;;;;;;;;21.19;57.73;100575.50;5027025;28;2710;-65
2022/10/22 02:47:25;;;;;;;;;;;;;;;21.19;57.86;100587.00;5011627;28;3292;-66
2022/10/22 02:49:51;;;;;;;;;;;;;;;21.20;57.95;100587.75;5003613;28;2958;-66
2022/10/22 02:52:18;;;;;;;;;;;;;;;21.20;58.00;100588.47;5010820;28;2944;-65
2022/10/22 02:54:44;;;;;;;;;;;;;;;21.20;58.17;100585.59;5008682;28;2853;-66
2022/10/22 02:57:10;;;;;;;;;;;;;;;21.22;58.21;100579.19;5007898;28;2877;-66
2022/10/22 02:59:37;;;;;;;;;;;;;;;21.21;58.44;100575.56;5005437;28;2721;-65
2022/10/22 03:02:03;;;;;;;;;;;;;;;21.24;57.91;100577.13;5018799;28;2747;-66
2022/10/22 03:04:29;;;;;;;;;;;;;;;21.25;58.03;100561.31;5015279;28;2826;-65
2022/10/22 03:06:56;;;;;;;;;;;;;;;21.25;57.82;100561.31;5013625;28;2911;-65
2022/10/22 03:09:22;;;;;;;;;;;;;;;21.26;57.89;100562.81;5008617;28;2963;-65
2022/10/22 03:11:50;;;;;;;;;;;;;;;21.26;57.91;100562.81;5014035;28;2909;-65
2022/10/22 03:14:16;;;;;;;;;;;;;;;21.25;57.96;100564.19;5008429;28;2679;-65
2022/10/22 03:16:42;;;;;;;;;;;;;;;21.24;57.95;100564.88;5020151;28;2790;-64
2022/10/22 03:19:09;;;;;;;;;;;;;;;21.25;57.90;100560.56;5013657;28;2793;-65
2022/10/22 03:21:43;;;;;;;;;;;;;;;21.25;58.02;100555.56;5013810;28;2783;-65
2022/10/22 03:24:13;;;;;;;;;;;;;;;21.25;57.97;100560.56;5005001;28;3087;-65
2022/10/22 03:26:39;;;;;;;;;;;;;;;21.23;58.02;100552.59;5013153;28;2868;-64
2022/10/22 03:29:06;;;;;;;;;;;;;;;21.24;58.13;100556.97;5009608;28;3014;-65
2022/10/22 03:31:32;;;;;;;;;;;;;;;21.24;58.03;100562.72;5015272;28;2418;-65
2022/10/22 03:33:58;;;;;;;;;;;;;;;21.24;58.28;100565.59;5013427;28;2940;-65
2022/10/22 03:36:25;;;;;;;;;;;;;;;21.22;58.02;100554.00;5012933;28;3078;-65
2022/10/22 03:38:51;;;;;;;;;;;;;;;21.23;58.08;100558.34;5018276;28;2868;-65
2022/10/22 03:41:17;;;;;;;;;;;;;;;21.23;58.10;100567.00;5014739;28;2794;-65
2022/10/22 03:43:48;;;;;;;;;;;;;;;21.23;58.13;100577.78;5008857;28;3122;-65
2022/10/22 03:46:15;;;;;;;;;;;;;;;21.24;57.95;100571.38;5012412;28;3204;-65
2022/10/22 03:48:41;;;;;;;;;;;;;;;21.23;58.25;100580.66;5011220;28;3014;-65
2022/10/22 03:51:07;;;;;;;;;;;;;;;21.22;58.22;100579.91;5010442;28;2521;-65
2022/10/22 03:53:34;;;;;;;;;;;;;;;21.21;58.17;100572.69;5012456;28;3058;-64
2022/10/22 03:56:00;;;;;;;;;;;;;;;21.21;58.13;100578.44;5010104;28;2888;-65
2022/10/22 03:58:26;;;;;;;;;;;;;;;21.22;58.22;100585.69;5014472;28;2976;-65
2022/10/22 04:00:53;;;;;;;;;;;;;;;21.21;58.07;100595.72;5010469;28;2743;-65
2022/10/22 04:03:19;;;;;;;;;;;;;;;21.20;58.12;100591.34;5009647;28;2880;-65
2022/10/22 04:05:45;;;;;;;;;;;;;;;21.20;58.16;100600.00;5010032;28;3127;-65
2022/10/22 04:08:12;;;;;;;;;;;;;;;21.21;58.12;100601.50;5013556;28;2984;-65
2022/10/22 04:10:38;;;;;;;;;;;;;;;21.20;58.16;100611.50;5012951;28;2979;-65
2022/10/22 04:13:04;;;;;;;;;;;;;;;21.20;58.17;100600.00;5012938;28;2980;-65
2022/10/22 04:15:31;;;;;;;;;;;;;;;21.20;58.54;100600.00;5009384;28;2939;-65
2022/10/22 04:17:58;;;;;;;;;;;;;;;21.19;58.08;100610.03;5009581;28;2682;-65
2022/10/22 04:20:24;;;;;;;;;;;;;;;21.19;58.11;100620.81;5015596;28;2853;-64
2022/10/22 04:22:50;;;;;;;;;;;;;;;21.18;58.19;100619.34;5010458;28;2768;-65
2022/10/22 04:25:17;;;;;;;;;;;;;;;21.18;58.52;100630.84;5012653;28;2876;-65
2022/10/22 04:27:43;;;;;;;;;;;;;;;21.18;58.21;100619.34;5015117;28;2785;-65
2022/10/22 04:30:10;;;;;;;;;;;;;;;21.17;58.21;100624.38;5016828;28;2576;-65
2022/10/22 04:32:36;;;;;;;;;;;;;;;21.16;58.44;100628.63;5011006;28;2849;-65
2022/10/22 04:35:02;;;;;;;;;;;;;;;21.17;58.22;100621.47;5009112;28;2941;-65
2022/10/22 04:37:29;;;;;;;;;;;;;;;21.16;58.19;100614.22;5006282;28;2929;-64
2022/10/22 04:39:55;;;;;;;;;;;;;;;21.13;58.28;100613.41;5011133;28;2755;-65
2022/10/22 04:42:23;;;;;;;;;;;;;;;21.16;58.54;100599.84;5009741;28;2678;-65
2022/10/22 04:44:49;;;;;;;;;;;;;;;21.16;58.25;100604.84;5012064;28;2762;-65
2022/10/22 04:47:16;;;;;;;;;;;;;;;21.14;58.27;100591.13;5013318;28;3182;-65
2022/10/22 04:49:42;;;;;;;;;;;;;;;21.16;58.14;100587.59;5011080;28;3094;-64
2022/10/22 04:52:08;;;;;;;;;;;;;;;21.16;58.12;100594.06;5008958;28;2754;-65
2022/10/22 04:54:35;;;;;;;;;;;;;;;21.14;58.36;100594.00;5012430;28;2685;-65
2022/10/22 04:57:01;;;;;;;;;;;;;;;21.16;58.34;100596.94;5004805;28;3012;-64
2022/10/22 04:59:28;;;;;;;;;;;;;;;21.13;58.26;100601.91;5012177;28;2838;-65
2022/10/22 05:01:54;;;;;;;;;;;;;;;21.12;58.41;100606.19;5009873;28;2745;-65
2022/10/22 05:04:20;;;;;;;;;;;;;;;21.14;58.28;100605.50;5005471;28;2805;-65
2022/10/22 05:06:46;;;;;;;;;;;;;;;21.14;58.25;100611.28;5012392;28;2742;-65
2022/10/22 05:09:14;;;;;;;;;;;;;;;21.13;58.32;100612.69;5011708;28;2755;-65
2022/10/22 05:11:42;;;;;;;;;;;;;;;21.14;58.18;100614.16;5011901;28;2856;-65
2022/10/22 05:14:09;;;;;;;;;;;;;;;21.14;58.22;100608.38;5013607;28;2928;-65
2022/10/22 05:16:36;;;;;;;;;;;;;;;21.10;58.28;100619.75;5008782;28;3042;-65
2022/10/22 05:19:03;;;;;;;;;;;;;;;21.10;58.48;100608.25;5012049;28;2707;-65
2022/10/22 05:21:29;;;;;;;;;;;;;;;21.10;58.36;100614.75;5006711;28;2996;-65
2022/10/22 05:23:56;;;;;;;;;;;;;;;21.10;58.29;100603.22;5008397;28;2816;-65
2022/10/22 05:26:23;;;;;;;;;;;;;;;21.10;58.24;100616.88;5013374;28;2721;-65
2022/10/22 05:28:50;;;;;;;;;;;;;;;21.11;58.38;100621.97;5008931;28;2923;-65
2022/10/22 05:31:16;;;;;;;;;;;;;;;21.10;58.38;100625.53;5008188;28;3503;-65
2022/10/22 05:33:43;;;;;;;;;;;;;;;21.11;58.26;100627.00;5009279;28;2687;-65
2022/10/22 05:36:10;;;;;;;;;;;;;;;21.11;58.42;100627.00;5010914;28;2897;-65
2022/10/22 05:38:36;;;;;;;;;;;;;;;21.09;58.27;100633.41;5026260;28;2976;-64
2022/10/22 05:41:02;;;;;;;;;;;;;;;21.09;58.22;100629.78;5013540;28;2885;-65
2022/10/22 05:43:29;;;;;;;;;;;;;;;21.08;58.40;100622.56;5008523;28;2868;-65
2022/10/22 05:45:55;;;;;;;;;;;;;;;21.09;58.48;100626.91;5010071;28;2726;-64
2022/10/22 05:48:21;;;;;;;;;;;;;;;21.10;58.19;100631.28;5004308;28;2932;-65
2022/10/22 05:50:49;;;;;;;;;;;;;;;21.09;58.05;100635.53;5012583;28;3007;-64
2022/10/22 05:53:16;;;;;;;;;;;;;;;21.08;58.17;100639.84;5004454;28;2823;-65
2022/10/22 05:55:43;;;;;;;;;;;;;;;21.08;58.41;100628.31;5012057;28;3447;-65
2022/10/22 05:58:09;;;;;;;;;;;;;;;21.08;58.26;100636.97;5014261;28;3002;-65
2022/10/22 06:00:36;;;;;;;;;;;;;;;21.08;58.39;100642.72;5005555;28;2994;-65
2022/10/22 06:03:02;;;;;;;;;;;;;;;21.09;58.31;100652.81;5009583;28;2940;-65
2022/10/22 06:05:28;;;;;;;;;;;;;;;21.07;58.31;100652.72;5011253;28;3292;-65
2022/10/22 06:07:55;;;;;;;;;;;;;;;21.07;58.20;100650.63;5007133;28;2963;-65
2022/10/22 06:10:21;;;;;;;;;;;;;;;21.07;58.31;100652.72;5007723;28;2836;-65
2022/10/22 06:12:47;;;;;;;;;;;;;;;21.06;58.19;100654.16;5015746;28;2935;-64
2022/10/22 06:15:23;;;;;;;;;;;;;;;21.07;58.38;100649.84;5016636;28;2710;-64
2022/10/22 06:17:49;;;;;;;;;;;;;;;21.06;58.16;100654.88;5019025;28;2904;-64
2022/10/22 06:20:16;;;;;;;;;;;;;;;21.06;58.49;100659.91;5015525;28;1625;-65
2022/10/22 06:22:42;;;;;;;;;;;;;;;21.06;58.27;100665.66;5014390;28;2635;-65
2022/10/22 06:25:09;;;;;;;;;;;;;;;21.05;58.37;100659.16;5014264;28;2877;-65
2022/10/22 06:27:35;;;;;;;;;;;;;;;21.06;58.34;100666.41;5016421;28;3186;-65
2022/10/22 06:30:02;;;;;;;;;;;;;;;21.07;58.24;100670.00;5011478;28;1669;-65
2022/10/22 06:32:28;;;;;;;;;;;;;;;21.06;58.39;100660.63;5013898;28;3060;-66
2022/10/22 06:34:54;;;;;;;;;;;;;;;21.07;58.19;100679.41;5020473;28;1902;-66
2022/10/22 06:37:21;;;;;;;;;;;;;;;21.08;58.19;100674.38;5015307;28;3443;-66
2022/10/22 06:39:47;;;;;;;;;;;;;;;21.09;58.30;100675.84;5017990;28;3042;-64
2022/10/22 06:42:13;;;;;;;;;;;;;;;20.21;58.76;100675.03;5016159;28;3024;-64
2022/10/22 06:44:40;;;;;;;;;;;;;;;19.11;61.48;100680.03;5012705;28;2912;-65
2022/10/22 06:47:06;;;;;;;;;;;;;;;18.80;62.40;100683.50;5013250;28;2988;-63
2022/10/22 06:49:32;;;;;;;;;;;;;;;18.86;62.04;100691.69;5015131;28;3261;-66
2022/10/22 06:51:59;;;;;;;;;;;;;;;18.83;62.92;100682.97;5018102;28;2984;-64
2022/10/22 06:54:25;;;;;;;;;;;;;;;18.78;63.46;100684.16;5004623;28;2988;-64
2022/10/22 06:56:58;;;;;;;;;;;;;;;18.79;63.73;100688.50;5009762;28;2884;-63
2022/10/22 06:59:28;;;;;;;;;;;;;;;19.04;63.23;100683.97;5026189;28;3149;-64
2022/10/22 07:01:55;;;;;;;;;;;;;;;19.00;63.43;100678.78;5004112;28;2896;-64
2022/10/22 07:04:21;;;;;;;;;;;;;;;19.00;63.70;100684.50;5011216;28;2955;-65
2022/10/22 07:06:47;;;;;;;;;;;;;;;19.41;62.96;100674.25;5015513;28;2621;-65
2022/10/22 07:09:14;;;;;;;;;;;;;;;20.14;60.73;100679.03;5005446;28;3055;-60
2022/10/22 07:11:43;;;;;;;;;;;;;;;20.42;59.49;100686.00;5016674;28;3070;-60
2022/10/22 07:14:10;;;;;;;;;;;;;;;20.53;59.54;100692.22;5018937;28;1973;-62
2022/10/22 07:16:36;;;;;;;;;;;;;;;20.59;59.66;100701.13;5016992;28;1645;-63
2022/10/22 07:19:03;;;;;;;;;;;;;;;20.62;59.95;100708.47;5012977;28;1565;-63
2022/10/22 07:21:30;;;;;;;;;;;;;;;20.60;60.24;100714.13;5018966;28;1562;-62
2022/10/22 07:23:56;;;;;;;;;;;;;;;20.64;59.58;100714.31;5018546;28;1994;-63
2022/10/22 07:26:24;;;;;;;;;;;;;;;20.67;59.58;100722.34;5016428;28;1649;-62
2022/10/22 07:28:50;;;;;;;;;;;;;;;20.67;59.63;100724.50;5016906;28;1656;-62
2022/10/22 07:31:16;;;;;;;;;;;;;;;20.70;60.01;100723.19;5019657;28;1716;-63
2022/10/22 07:33:43;;;;;;;;;;;;;;;20.68;60.21;100731.72;5015750;28;1914;-62
2022/10/22 07:36:10;;;;;;;;;;;;;;;20.71;60.03;100730.44;5018308;28;1681;-63
2022/10/22 07:38:37;;;;;;;;;;;;;;;20.73;60.18;100726.88;5020170;28;1835;-62
2022/10/22 07:41:03;;;;;;;;;;;;;;;20.72;59.95;100740.53;5015288;28;3703;-65
2022/10/22 07:43:29;;;;;;;;;;;;;;;20.67;59.99;100736.00;5014036;28;2993;-52
2022/10/22 07:45:56;;;;;;;;;;;;;;;20.77;60.01;100750.06;5011159;28;2999;-64
2022/10/22 07:48:22;;;;;;;;;;;;;;;20.72;60.64;100752.03;5014418;28;3341;-64
2022/10/22 07:50:49;;;;;;;;;;;;;;;20.79;60.80;100753.78;4997952;28;2915;-64
2022/10/22 07:53:15;;;;;;;;;;;;;;;20.82;60.59;100752.50;5010060;28;3030;-71
2022/10/22 07:55:42;;;;;;;;;;;;;;;20.78;60.58;100752.31;5009145;28;2819;-65
2022/10/22 07:58:08;;;;;;;;;;;;;;;20.82;60.89;100764.00;5009282;28;2899;-66
2022/10/22 08:00:35;;;;;;;;;;;;;;;20.83;60.74;100765.47;5012935;28;2827;-66
2022/10/22 08:03:01;;;;;;;;;;;;;;;20.85;60.54;100761.94;5006238;28;2925;-57
2022/10/22 08:05:27;;;;;;;;;;;;;;;20.75;60.76;100759.34;5008195;28;2884;-66
2022/10/22 08:07:54;;;;;;;;;;;;;;;20.51;61.40;100765.50;5011197;28;2810;-67
2022/10/22 08:10:20;;;;;;;;;;;;;;;20.64;61.10;100777.59;5004885;28;2991;-67
2022/10/22 08:12:46;;;;;;;;;;;;;;;20.75;60.60;100765.13;5011406;28;2832;-67
2022/10/22 08:15:13;;;;;;;;;;;;;;;20.80;60.37;100766.03;5011546;28;2846;-63
2022/10/22 08:17:39;;;;;;;;;;;;;;;20.78;60.68;100774.59;5010681;28;3074;-64
2022/10/22 08:20:06;;;;;;;;;;;;;;;20.38;61.87;100772.09;5012764;28;2507;-63
2022/10/22 08:22:32;;;;;;;;;;;;;;;20.47;61.47;100776.81;5010118;28;2907;-66
2022/10/22 08:24:59;;;;;;;;;;;;;;;20.62;61.13;100780.38;5009533;28;2861;-66
2022/10/22 08:27:25;;;;;;;;;;;;;;;20.72;60.58;100777.94;5012051;28;2856;-66
2022/10/22 08:29:52;;;;;;;;;;;;;;;20.78;60.35;100786.84;5011361;28;2889;-67
2022/10/22 08:32:18;;;;;;;;;;;;;;;20.81;60.46;100790.56;5009304;28;3093;-66
2022/10/22 08:34:44;;;;;;;;;;;;;;;20.81;60.88;100791.28;5007358;28;3018;-66
2022/10/22 08:37:13;;;;;;;;;;;;;;;20.82;60.74;100781.28;5009647;28;3207;-67
2022/10/22 08:39:40;;;;;;;;;;;;;;;20.83;60.84;100785.63;5011867;28;2611;-66
2022/10/22 08:42:20;;;;;;;;;;;;;;;20.84;60.58;100781.34;5008512;28;3082;-66
2022/10/22 08:44:52;;;;;;;;;;;;;;;20.87;60.94;100797.31;5015379;28;3152;-58
2022/10/22 08:47:40;;;;;;;;;;;;;;;20.85;60.69;100791.47;5022472;28;2808;-61
2022/10/22 08:50:11;;;;;;;;;;;;;;;20.61;61.71;100799.03;5013784;28;3342;-61
2022/10/22 08:56:24;;;;;;;;;;;;;;;20.60;61.71;100800.44;5008663;28;2884;-67
2022/10/22 08:58:52;;;;;;;;;;;;;;;20.70;61.38;100815.25;5018744;28;2962;-67
2022/10/22 09:01:22;;;;;;;;;;;;;;;20.76;61.07;100806.16;5009363;28;2973;-67
2022/10/22 09:03:49;;;;;;;;;;;;;;;20.79;60.95;100807.72;5010888;28;2658;-67
2022/10/22 09:06:17;;;;;;;;;;;;;;;20.81;60.82;100814.31;5014663;28;1632;-67
2022/10/22 09:08:44;;;;;;;;;;;;;;;20.80;60.93;100806.31;5016789;28;1617;-67
2022/10/22 09:11:16;;;;;;;;;;;;;;;20.79;60.88;100808.47;5010970;28;2863;-67
2022/10/22 09:13:43;;;;;;;;;;;;;;;20.82;60.53;100812.94;5020173;28;3086;-67
2022/10/22 09:16:20;;;;;;;;;;;;;;;20.81;60.55;100814.31;5015535;28;2910;-67
2022/10/22 09:18:47;;;;;;;;;;;;;;;20.82;60.71;100810.06;5032116;28;1604;-67
2022/10/22 09:21:19;;;;;;;;;;;;;;;20.82;60.44;100830.19;5013037;28;2935;-67
2022/10/22 09:23:55;;;;;;;;;;;;;;;20.82;60.69;100818.69;5014436;28;3057;-67
2022/10/22 09:26:21;;;;;;;;;;;;;;;20.81;60.41;100825.81;5026893;28;2992;-67
2022/10/22 09:28:48;;;;;;;;;;;;;;;20.84;60.17;100830.25;5014359;28;2631;-67
2022/10/22 09:31:15;;;;;;;;;;;;;;;20.83;60.20;100828.78;5011320;28;2928;-67
2022/10/22 09:33:41;;;;;;;;;;;;;;;20.77;61.02;100825.63;5006969;28;2953;-65
2022/10/22 09:36:08;;;;;;;;;;;;;;;20.82;60.51;100821.56;5000380;28;3135;-67
2022/10/22 09:38:39;;;;;;;;;;;;;;;20.90;60.39;100832.69;5013105;28;3234;-65
2022/10/22 09:41:05;;;;;;;;;;;;;;;20.93;60.66;100832.09;5004451;28;2887;-64
2022/10/22 09:43:31;;;;;;;;;;;;;;;20.96;60.40;100835.06;5010595;28;3111;-66
2022/10/22 09:45:58;;;;;;;;;;;;;;;20.95;60.34;100834.34;5004067;28;3066;-64
2022/10/22 09:48:29;;;;;;;;;;;;;;;20.95;60.62;100831.44;5005844;28;3090;-66
2022/10/22 09:50:58;;;;;;;;;;;;;;;20.96;60.58;100841.59;5010103;28;2821;-64
2022/10/22 09:53:25;;;;;;;;;;;;;;;20.98;60.28;100832.28;5016915;28;2862;-67
2022/10/22 09:55:53;;;;;;;;;;;;;;;20.97;60.39;100836.56;5005263;28;2816;-67
2022/10/22 09:58:19;;;;;;;;;;;;;;;20.98;60.14;100841.69;5011852;28;2847;-67
2022/10/22 10:00:49;;;;;;;;;;;;;;;21.01;60.12;100842.50;5007413;28;2976;-65
2022/10/22 10:03:22;;;;;;;;;;;;;;;21.01;60.23;100845.38;5012666;28;2882;-63
2022/10/22 10:05:50;;;;;;;;;;;;;;;21.02;60.98;100855.50;5005072;28;3495;-64
2022/10/22 10:08:17;;;;;;;;;;;;;;;20.86;62.21;100847.63;5005122;28;3014;-64
2022/10/22 10:10:45;;;;;;;;;;;;;;;20.85;62.44;100849.03;5009709;28;2905;-64
2022/10/22 10:13:14;;;;;;;;;;;;;;;20.88;62.13;100847.72;5016384;28;2823;-64
2022/10/22 10:15:53;;;;;;;;;;;;;;;20.94;62.15;100858.75;5014093;28;2693;-64
2022/10/22 10:18:38;;;;;;;;;;;;;;;20.97;61.99;100842.31;5031969;28;2940;-63
2022/10/22 10:21:09;;;;;;;;;;;;;;;20.98;61.61;100850.31;5021282;28;1677;-63
2022/10/22 10:23:54;;;;;;;;;;;;;;;21.00;61.38;100852.53;5031197;28;2976;-63
2022/10/22 10:26:23;;;;;;;;;;;;;;;21.00;61.27;100852.53;5013782;28;2926;-62
2022/10/22 10:28:55;;;;;;;;;;;;;;;21.01;61.34;100859.78;5034985;28;3008;-63
2022/10/22 10:31:26;;;;;;;;;;;;;;;21.00;61.46;100849.66;5033611;28;2931;-63
2022/10/22 10:34:11;;;;;;;;;;;;;;;21.01;61.37;100854.03;5019174;28;1622;-63
2022/10/22 10:36:44;;;;;;;;;;;;;;;21.01;61.44;100848.25;5016558;28;2916;-63
2022/10/22 10:39:17;;;;;;;;;;;;;;;21.03;60.98;100843.34;5018463;28;1664;-63
2022/10/22 10:41:48;;;;;;;;;;;;;;;21.03;60.90;100843.34;5015623;28;1631;-63
2022/10/22 10:44:29;;;;;;;;;;;;;;;21.05;60.94;100849.19;5034049;28;1676;-63
2022/10/22 10:47:14;;;;;;;;;;;;;;;21.05;60.96;100849.19;5018352;28;3178;-63
2022/10/22 10:49:40;;;;;;;;;;;;;;;21.05;60.85;100843.41;5017251;28;1835;-63
2022/10/22 10:52:27;;;;;;;;;;;;;;;21.08;60.86;100852.88;5016568;28;3030;-63
2022/10/22 10:55:09;;;;;;;;;;;;;;;21.09;60.55;100848.59;5014791;28;2764;-63
2022/10/22 10:57:43;;;;;;;;;;;;;;;21.08;60.69;100845.00;5024914;28;1704;-63
2022/10/22 11:00:10;;;;;;;;;;;;;;;21.08;60.95;100845.00;5013734;28;2930;-63
2022/10/22 11:02:46;;;;;;;;;;;;;;;21.09;60.94;100849.34;5014859;28;1657;-63
2022/10/22 11:05:15;;;;;;;;;;;;;;;21.10;60.92;100850.09;5015241;28;1632;-63
2022/10/22 11:07:48;;;;;;;;;;;;;;;21.09;60.70;100845.72;5012774;28;2865;-63
2022/10/22 11:10:24;;;;;;;;;;;;;;;21.10;60.67;100832.81;5025877;28;2889;-63
2022/10/22 11:12:51;;;;;;;;;;;;;;;21.12;60.95;100850.19;5013728;28;2974;-63
2022/10/22 11:15:24;;;;;;;;;;;;;;;21.12;60.97;100841.56;5021343;28;2665;-63
2022/10/22 11:17:50;;;;;;;;;;;;;;;21.12;61.06;100836.53;5010225;28;2936;-63
2022/10/22 11:20:24;;;;;;;;;;;;;;;21.15;60.87;100840.22;5022989;28;2829;-64
2022/10/22 11:22:52;;;;;;;;;;;;;;;21.14;61.08;100844.50;5009822;28;2872;-63
2022/10/22 11:25:39;;;;;;;;;;;;;;;21.15;60.93;100848.13;5011550;28;2898;-63
2022/10/22 11:28:13;;;;;;;;;;;;;;;21.17;61.10;100848.97;5029727;28;2625;-63
2022/10/22 11:30:41;;;;;;;;;;;;;;;21.19;60.85;100851.16;5023904;28;2887;-64
2022/10/22 11:33:11;;;;;;;;;;;;;;;21.19;61.19;100849.06;5024419;28;3064;-59
2022/10/22 11:35:39;;;;;;;;;;;;;;;21.16;61.25;100846.72;5015018;28;2695;-67
2022/10/22 11:38:06;;;;;;;;;;;;;;;21.06;62.52;100844.16;5010381;28;2889;-57
2022/10/22 11:40:36;;;;;;;;;;;;;;;21.07;62.78;100845.63;5019153;28;2926;-60
2022/10/22 11:43:06;;;;;;;;;;;;;;;21.02;63.42;100843.97;5008374;28;2872;-62
2022/10/22 11:45:36;;;;;;;;;;;;;;;21.00;63.21;100850.38;5004286;28;3193;-61
2022/10/22 11:48:09;;;;;;;;;;;;;;;21.05;63.18;100854.19;5013493;28;2754;-61
2022/10/22 11:50:47;;;;;;;;;;;;;;;21.02;63.62;100843.97;5009450;28;2712;-60
2022/10/22 11:53:14;;;;;;;;;;;;;;;21.01;63.45;100848.25;5012042;28;2950;-61
2022/10/22 11:55:50;;;;;;;;;;;;;;;21.00;63.60;100843.88;5008259;28;2919;-61
2022/10/22 11:58:26;;;;;;;;;;;;;;;21.01;63.77;100848.25;5007574;28;2914;-60
2022/10/22 12:00:57;;;;;;;;;;;;;;;21.03;63.57;100849.09;5011930;28;2814;-61
2022/10/22 12:03:38;;;;;;;;;;;;;;;21.06;63.55;100844.16;5008376;28;2947;-60
2022/10/22 12:06:11;;;;;;;;;;;;;;;21.03;63.15;100857.00;5005367;28;2702;-60
2022/10/22 12:08:44;;;;;;;;;;;;;;;21.06;63.11;100850.66;5014408;28;3350;-60
2022/10/22 12:11:10;;;;;;;;;;;;;;;21.06;63.18;100855.69;5009570;28;2846;-60
2022/10/22 12:13:51;;;;;;;;;;;;;;;21.07;62.86;100851.38;5010960;28;2393;-61
2022/10/22 12:16:18;;;;;;;;;;;;;;;21.08;62.70;100847.13;5012327;28;2821;-60
2022/10/22 12:19:10;;;;;;;;;;;;;;;21.09;62.62;100852.22;5008160;28;3059;-60
2022/10/22 12:21:37;;;;;;;;;;;;;;;21.14;62.62;100856.00;5025027;28;2807;-60
2022/10/22 12:24:03;;;;;;;;;;;;;;;21.12;62.47;100853.81;5005187;28;2995;-61
2022/10/22 12:26:30;;;;;;;;;;;;;;;21.17;62.31;100851.09;5015615;28;2765;-66
2022/10/22 12:29:02;;;;;;;;;;;;;;;21.22;62.45;100847.00;5013571;28;3047;-66
2022/10/22 12:31:28;;;;;;;;;;;;;;;21.28;61.86;100850.13;5026449;28;2815;-65
2022/10/22 12:33:58;;;;;;;;;;;;;;;21.30;61.67;100845.22;5012421;28;2975;-66
2022/10/22 12:36:28;;;;;;;;;;;;;;;21.34;61.57;100844.63;5008435;28;2886;-66
2022/10/22 12:39:02;;;;;;;;;;;;;;;21.38;61.30;100849.81;5001460;28;3278;-66
2022/10/22 12:41:30;;;;;;;;;;;;;;;21.42;61.32;100850.03;5011462;28;2937;-65
2022/10/22 12:43:59;;;;;;;;;;;;;;;21.42;61.26;100845.00;5021889;28;2905;-66
2022/10/22 12:46:26;;;;;;;;;;;;;;;21.46;61.12;100847.28;5009914;28;2953;-66
2022/10/22 12:48:52;;;;;;;;;;;;;;;21.45;61.00;100842.94;5008757;28;3051;-65
2022/10/22 12:51:18;;;;;;;;;;;;;;;21.47;60.99;100845.91;5009992;28;3172;-65
2022/10/22 12:53:46;;;;;;;;;;;;;;;21.48;61.01;100841.63;5006441;28;2919;-66
2022/10/22 12:56:14;;;;;;;;;;;;;;;21.50;60.76;100847.47;5005630;28;2656;-65
2022/10/22 12:58:42;;;;;;;;;;;;;;;21.50;61.01;100850.34;5003213;28;2892;-64